Погода Гарианна неделю

Бенгази, Ливия

24 - 30 июля
  • 24июля
    Сегодня
    +20°
    +29°
    Облачно с прояснениями
    ВремяПогодаТемператураВлажностьДавлениеВетер, м/сВероятность осадков
    02:00Практически безоблачно+21°C85 %704 мм4.4 м/с2 %
    05:00Практически безоблачно+20°C92 %703 мм3.5 м/с2 %
    08:00Небольшая облачность+22°C84 %703 мм4.9 м/с5 %
    11:00Небольшая облачность+25°C60 %704 мм5.1 м/с8 %
    14:00Облачно с прояснениями+27°C46 %703 мм5.5 м/с1 %
    17:00Практически безоблачно+28°C46 %703 мм5.3 м/с1 %
    20:00Ясно и безоблачно+24°C63 %702 мм4.7 м/с2 %
    23:00Ясно и безоблачно+22°C80 %703 мм2.3 м/с2 %
  • 25июля
    Четверг
    +22°
    +31°
    Ясно и безоблачно
    ВремяПогодаТемператураВлажностьДавлениеВетер, м/сВероятность осадков
    02:00Ясно и безоблачно+21°C93 %702 мм1.0 м/с2 %
    05:00Ясно и безоблачно+21°C89 %701 мм1.4 м/с2 %
    08:00Ясно и безоблачно+22°C84 %702 мм1.3 м/с2 %
    11:00Ясно и безоблачно+26°C51 %703 мм3.1 м/с2 %
    14:00Ясно и безоблачно+29°C41 %702 мм4.2 м/с2 %
    17:00Ясно и безоблачно+30°C36 %701 мм5.5 м/с2 %
    20:00Ясно и безоблачно+26°C46 %701 мм3.8 м/с2 %
    23:00Ясно и безоблачно+24°C66 %702 мм0.8 м/с2 %
  • 26июля
    Пятница
    +21°
    +33°
    Ясно и безоблачно
    ВремяПогодаТемператураВлажностьДавлениеВетер, м/сВероятность осадков
    02:00Ясно и безоблачно+24°C57 %701 мм1.4 м/с2 %
    05:00Ясно и безоблачно+23°C36 %700 мм1.0 м/с2 %
    08:00Ясно и безоблачно+25°C35 %701 мм1.6 м/с2 %
    11:00Ясно и безоблачно+29°C24 %703 мм2.6 м/с2 %
    14:00Ясно и безоблачно+32°C23 %703 мм3.8 м/с2 %
    17:00Ясно и безоблачно+33°C23 %702 мм3.9 м/с2 %
    20:00Ясно и безоблачно+28°C31 %702 мм4.8 м/с2 %
    23:00Ясно и безоблачно+26°C39 %702 мм2.1 м/с2 %
  • 27июля
    Суббота
    +23°
    +34°
    Ясно и безоблачно
    ВремяПогодаТемператураВлажностьДавлениеВетер, м/сВероятность осадков
    02:00Ясно и безоблачно+24°C47 %701 мм3.1 м/с2 %
    05:00Ясно и безоблачно+23°C59 %701 мм3.2 м/с2 %
    08:00Ясно и безоблачно+25°C51 %702 мм2.8 м/с2 %
    11:00Ясно и безоблачно+30°C30 %704 мм2.2 м/с2 %
    14:00Ясно и безоблачно+33°C22 %703 мм2.7 м/с2 %
    17:00Ясно и безоблачно+34°C18 %703 мм4.2 м/с2 %
    20:00Ясно и безоблачно+30°C37 %703 мм8.3 м/с2 %
    23:00Ясно и безоблачно+26°C59 %704 мм7.3 м/с2 %
Мы используем cookies
Соглашаюсь